Time;durP1;ratioP1;P1;durP2;ratioP2;P2;SDS_P1;SDS_P2;PMS_P1;PMS_P2;Temp;Humidity;BMP_temperature;BMP_pressure;BME280_temperature;BME280_humidity;BME280_pressure;Samples;Min_cycle;Max_cycle;Signal;HPM_P1;HPM_P2
2023/12/16 00:00:57;;;;;;;5.40;4.90;;;11.00;79.40;9.70;98487.00;;;;4971840;28;20206;-85
2023/12/16 00:03:24;;;;;;;5.37;4.87;;;11.00;79.60;9.60;98496.00;;;;4965160;28;20231;-85
2023/12/16 00:05:53;;;;;;;6.47;5.27;;;11.00;79.70;9.70;98491.00;;;;4969625;28;20314;-85
2023/12/16 00:08:21;;;;;;;4.90;4.40;;;11.60;80.10;9.70;98499.00;;;;4970585;28;20195;-84
2023/12/16 00:10:48;;;;;;;5.23;4.57;;;11.00;79.80;9.70;98494.00;;;;4966232;28;20206;-84
2023/12/16 00:13:15;;;;;;;6.40;4.73;;;11.00;79.80;9.70;98502.00;;;;4966379;28;20745;-85
2023/12/16 00:15:44;;;;;;;6.43;5.27;;;11.00;79.80;9.70;98500.00;;;;4976488;28;20294;-86
2023/12/16 00:18:11;;;;;;;6.03;4.97;;;11.00;79.70;9.70;98498.00;;;;4961200;28;20202;-84
2023/12/16 00:20:38;;;;;;;4.93;4.53;;;11.00;79.60;9.70;98489.00;;;;4961298;28;20291;-87
2023/12/16 00:23:05;;;;;;;5.17;4.67;;;11.00;79.60;9.70;98492.00;;;;4961259;28;20609;-86
2023/12/16 00:25:32;;;;;;;4.30;3.90;;;11.00;79.80;9.70;98508.00;;;;4961995;28;20316;-87
2023/12/16 00:27:59;;;;;;;5.87;5.03;;;11.00;79.90;9.60;98504.00;;;;4960826;28;20302;-84
2023/12/16 00:30:27;;;;;;;5.50;4.57;;;11.40;80.30;9.60;98489.00;;;;4964127;28;20267;-86
2023/12/16 00:32:55;;;;;;;6.80;4.83;;;10.90;79.90;9.60;98484.00;;;;4961004;28;20221;-86
2023/12/16 00:35:22;;;;;;;5.20;4.70;;;11.50;80.20;9.60;98497.00;;;;4961149;28;20311;-84
2023/12/16 00:37:50;;;;;;;5.27;4.70;;;10.90;79.80;9.60;98511.00;;;;4960489;28;20673;-85
2023/12/16 00:40:17;;;;;;;5.57;4.90;;;11.00;79.90;9.60;98520.00;;;;4959050;28;20298;-86
2023/12/16 00:42:44;;;;;;;4.67;4.27;;;10.90;79.90;9.60;98518.00;;;;4962170;28;20199;-85
2023/12/16 00:45:11;;;;;;;5.30;4.87;;;10.90;79.90;9.60;98528.00;;;;4966678;28;20717;-85
2023/12/16 00:47:39;;;;;;;5.80;4.87;;;11.00;80.10;9.60;98530.00;;;;4966321;28;20351;-85
2023/12/16 00:50:09;;;;;;;4.80;4.40;;;10.90;80.00;9.60;98526.00;;;;4966924;28;20212;-86
2023/12/16 00:52:36;;;;;;;4.67;4.27;;;10.90;80.00;9.60;98531.00;;;;4960550;28;20196;-85
2023/12/16 00:55:03;;;;;;;5.10;4.60;;;11.00;80.10;9.60;98535.00;;;;4965362;28;20242;-86
2023/12/16 00:57:31;;;;;;;5.57;4.77;;;10.90;80.20;9.60;98525.00;;;;4960314;28;20203;-85
2023/12/16 00:59:58;;;;;;;5.20;4.73;;;11.00;80.20;9.60;98537.00;;;;4961632;28;20283;-84
2023/12/16 01:02:27;;;;;;;6.47;4.57;;;10.90;80.00;9.60;98529.00;;;;4964359;28;20299;-87
2023/12/16 01:04:54;;;;;;;5.03;4.53;;;10.90;79.80;9.60;98544.00;;;;4962281;28;20308;-84
2023/12/16 01:07:23;;;;;;;5.23;4.73;;;10.90;80.10;9.70;98541.00;;;;4965682;28;20224;-85
2023/12/16 01:09:52;;;;;;;5.00;4.60;;;11.00;80.00;9.60;98542.00;;;;4962601;28;20198;-84
2023/12/16 01:12:20;;;;;;;6.07;4.97;;;11.00;80.00;9.60;98541.00;;;;4966465;28;20227;-86
2023/12/16 01:14:47;;;;;;;5.73;4.67;;;10.90;80.00;9.60;98526.00;;;;4961368;28;20258;-84
2023/12/16 01:17:14;;;;;;;5.60;5.07;;;10.90;80.00;9.60;98538.00;;;;4970795;28;20207;-82
2023/12/16 01:19:41;;;;;;;4.73;4.33;;;10.90;80.10;9.60;98529.00;;;;4963460;28;20686;-88
2023/12/16 01:22:08;;;;;;;4.77;4.33;;;10.90;80.10;9.60;98521.00;;;;4963992;28;20207;-85
2023/12/16 01:24:37;;;;;;;6.27;5.00;;;10.90;80.20;9.60;98525.00;;;;4970583;28;20676;-85
2023/12/16 01:27:05;;;;;;;5.27;4.77;;;11.10;80.10;9.60;98529.00;;;;4961896;28;20223;-85
2023/12/16 01:29:32;;;;;;;7.20;4.90;;;10.90;80.00;9.60;98535.00;;;;4961599;28;20295;-86
2023/12/16 01:31:59;;;;;;;4.90;4.40;;;10.90;79.90;9.60;98521.00;;;;4965388;28;20196;-84
2023/12/16 01:34:26;;;;;;;5.23;4.73;;;10.90;80.00;9.60;98521.00;;;;4963273;28;20199;-82
2023/12/16 01:36:53;;;;;;;5.20;4.70;;;10.90;79.90;9.60;98527.00;;;;4961434;28;20291;-86
2023/12/16 01:39:20;;;;;;;5.13;4.63;;;10.90;79.70;9.60;98534.00;;;;4964220;28;20199;-86
2023/12/16 01:41:49;;;;;;;6.20;4.97;;;10.90;79.80;9.60;98540.00;;;;4966289;28;20239;-86
2023/12/16 01:44:16;;;;;;;5.77;5.13;;;10.90;79.80;9.60;98540.00;;;;4964967;28;20208;-85
2023/12/16 01:46:44;;;;;;;5.80;5.00;;;10.90;79.90;9.60;98540.00;;;;4963330;28;20753;-86
2023/12/16 01:49:11;;;;;;;6.00;5.40;;;10.90;79.80;9.60;98544.00;;;;4968228;28;20196;-85
2023/12/16 01:51:39;;;;;;;6.20;5.30;;;10.90;79.70;9.60;98542.00;;;;4971003;28;20207;-85
2023/12/16 01:54:09;;;;;;;6.27;5.07;;;10.90;79.70;9.60;98550.00;;;;4970800;28;20234;-85
2023/12/16 01:56:38;;;;;;;6.87;5.40;;;10.90;79.70;9.60;98555.00;;;;4966986;28;20226;-85
2023/12/16 01:59:07;;;;;;;6.03;5.43;;;10.90;79.70;9.60;98557.00;;;;4971028;28;20200;-86
2023/12/16 02:01:34;;;;;;;7.07;5.50;;;10.90;79.70;9.60;98554.00;;;;4962661;28;20200;-86
2023/12/16 02:04:01;;;;;;;6.20;5.53;;;11.00;79.90;9.60;98558.00;;;;4969742;28;20724;-86
2023/12/16 02:06:29;;;;;;;6.63;5.27;;;10.90;79.80;9.60;98566.00;;;;4966862;28;20230;-84
2023/12/16 02:08:56;;;;;;;6.33;5.73;;;10.90;79.80;9.60;98566.00;;;;4964662;28;20192;-86
2023/12/16 02:11:23;;;;;;;6.10;5.50;;;10.90;79.70;9.60;98559.00;;;;4958897;28;20674;-85
2023/12/16 02:13:51;;;;;;;6.27;5.50;;;10.90;79.70;9.60;98557.00;;;;4964211;28;20647;-85
2023/12/16 02:16:19;;;;;;;6.77;5.67;;;10.90;79.60;9.60;98552.00;;;;4961940;28;20233;-86
2023/12/16 02:18:47;;;;;;;5.87;5.27;;;10.90;79.50;9.50;98553.00;;;;4963671;28;20287;-85
2023/12/16 02:21:14;;;;;;;6.73;6.03;;;10.90;79.40;9.50;98548.00;;;;4965932;28;20626;-83
2023/12/16 02:23:42;;;;;;;6.17;5.47;;;10.80;79.30;9.50;98543.00;;;;4960737;28;20204;-85
2023/12/16 02:26:09;;;;;;;5.77;5.27;;;10.80;79.30;9.50;98558.00;;;;4964231;28;20713;-85
2023/12/16 02:28:36;;;;;;;5.90;5.30;;;10.80;79.30;9.50;98564.00;;;;4958849;28;20195;-84
2023/12/16 02:31:04;;;;;;;5.57;5.00;;;11.70;79.80;9.50;98555.00;;;;4970673;28;20295;-84
2023/12/16 02:33:31;;;;;;;6.23;5.23;;;10.80;79.40;9.40;98567.00;;;;4961691;28;20208;-85
2023/12/16 02:36:00;;;;;;;6.73;5.70;;;10.80;79.40;9.40;98560.00;;;;4958588;28;20216;-86
2023/12/16 02:38:27;;;;;;;8.77;6.67;;;10.80;79.50;9.40;98566.00;;;;4964176;28;20203;-86
2023/12/16 02:40:56;;;;;;;7.50;5.83;;;10.70;79.50;9.40;98554.00;;;;4956910;28;20287;-87
2023/12/16 02:43:23;;;;;;;7.40;5.43;;;10.80;79.50;9.40;98554.00;;;;4954899;28;20197;-86
2023/12/16 02:45:50;;;;;;;7.70;5.90;;;10.80;79.40;9.40;98529.00;;;;4961075;28;20334;-86
2023/12/16 02:48:17;;;;;;;5.90;5.27;;;10.60;79.10;9.30;98544.00;;;;4953003;28;20256;-86
2023/12/16 02:50:44;;;;;;;5.80;5.23;;;10.70;79.20;9.30;98553.00;;;;4960917;28;20720;-86
2023/12/16 02:53:11;;;;;;;6.17;5.53;;;10.70;79.20;9.30;98562.00;;;;4962055;28;20294;-84
2023/12/16 02:55:38;;;;;;;5.87;5.13;;;10.60;79.10;9.30;98562.00;;;;4960899;28;20252;-86
2023/12/16 02:58:06;;;;;;;6.30;5.67;;;10.60;79.20;9.30;98564.00;;;;4953884;28;20200;-86
2023/12/16 03:00:33;;;;;;;6.93;5.93;;;10.60;79.30;9.20;98563.00;;;;4958441;28;20203;-83
2023/12/16 03:03:00;;;;;;;6.70;5.70;;;10.60;79.40;9.20;98558.00;;;;4963051;28;20294;-85
2023/12/16 03:05:28;;;;;;;6.63;6.00;;;10.70;79.50;9.20;98562.00;;;;4953092;28;20251;-86
2023/12/16 03:07:55;;;;;;;7.27;5.57;;;10.60;79.40;9.20;98575.00;;;;4954698;28;20308;-86
2023/12/16 03:10:22;;;;;;;6.27;5.43;;;10.60;79.40;9.20;98574.00;;;;4959850;28;20283;-86
2023/12/16 03:12:49;;;;;;;6.87;6.00;;;10.50;79.20;9.20;98573.00;;;;4955000;28;20216;-83
2023/12/16 03:15:17;;;;;;;6.53;5.87;;;10.50;79.20;9.20;98562.00;;;;4965133;28;20712;-85
2023/12/16 03:17:45;;;;;;;7.37;6.17;;;10.50;79.20;9.20;98571.00;;;;4962173;28;20239;-87
2023/12/16 03:20:13;;;;;;;6.03;5.43;;;10.50;79.40;9.20;98581.00;;;;4964272;28;20223;-87
2023/12/16 03:22:40;;;;;;;7.27;5.90;;;10.40;79.20;9.10;98587.00;;;;4963295;28;20677;-87
2023/12/16 03:25:08;;;;;;;7.10;5.60;;;10.50;79.30;9.10;98588.00;;;;4953994;28;20242;-87
2023/12/16 03:27:35;;;;;;;6.07;5.47;;;10.50;79.40;9.10;98594.00;;;;4956939;28;20226;-85
2023/12/16 03:30:02;;;;;;;7.67;6.10;;;10.50;79.40;9.10;98582.00;;;;4964657;28;20230;-87
2023/12/16 03:32:30;;;;;;;5.90;5.07;;;10.50;79.40;9.10;98589.00;;;;4959288;28;20505;-87
2023/12/16 03:34:57;;;;;;;6.73;6.03;;;10.50;79.40;9.10;98591.00;;;;4962212;28;20310;-85
2023/12/16 03:37:24;;;;;;;6.97;6.03;;;10.50;79.50;9.10;98585.00;;;;4959244;28;20234;-87
2023/12/16 03:39:51;;;;;;;6.57;5.60;;;10.50;79.70;9.10;98579.00;;;;4957209;28;20224;-86
2023/12/16 03:42:19;;;;;;;6.67;5.77;;;11.10;80.10;9.20;98564.00;;;;4951896;28;20208;-86
2023/12/16 03:44:47;;;;;;;7.47;5.87;;;10.40;79.80;9.20;98572.00;;;;4961914;28;20227;-86
2023/12/16 03:47:17;;;;;;;6.37;5.77;;;10.50;79.80;9.10;98572.00;;;;4962102;28;20223;-85
2023/12/16 03:49:45;;;;;;;6.60;5.80;;;10.50;79.70;9.20;98579.00;;;;4953100;28;20208;-87
2023/12/16 03:52:12;;;;;;;6.50;5.90;;;10.50;79.40;9.10;98584.00;;;;4953043;28;20287;-86
2023/12/16 03:54:40;;;;;;;7.30;6.00;;;10.50;79.40;9.20;98582.00;;;;4961305;28;20670;-87
2023/12/16 03:57:07;;;;;;;6.73;6.10;;;10.50;79.40;9.10;98593.00;;;;4962790;28;20227;-87
2023/12/16 03:59:34;;;;;;;6.57;5.90;;;10.50;79.50;9.10;98590.00;;;;4958328;28;20234;-86
2023/12/16 04:02:01;;;;;;;6.43;5.33;;;10.50;79.60;9.10;98594.00;;;;4957802;28;20299;-86
2023/12/16 04:04:29;;;;;;;6.77;6.07;;;10.70;79.60;9.10;98606.00;;;;4964714;28;20204;-86
2023/12/16 04:07:00;;;;;;;7.00;6.30;;;10.50;79.50;9.10;98599.00;;;;4960633;28;20726;-86
2023/12/16 04:09:27;;;;;;;6.40;5.80;;;10.40;79.40;9.10;98606.00;;;;4962242;28;20232;-86
2023/12/16 04:11:54;;;;;;;6.90;5.77;;;10.40;79.40;9.10;98607.00;;;;4959723;28;20680;-86
2023/12/16 04:14:24;;;;;;;6.63;5.90;;;10.50;79.60;9.10;98592.00;;;;4966712;28;20291;-86
2023/12/16 04:16:51;;;;;;;7.40;5.87;;;10.40;79.60;9.10;98593.00;;;;4960499;28;20232;-86
2023/12/16 04:19:18;;;;;;;7.17;5.67;;;10.40;79.50;9.10;98597.00;;;;4962885;28;20210;-86
2023/12/16 04:21:45;;;;;;;7.13;6.43;;;10.40;79.60;9.00;98596.00;;;;4962633;28;20196;-88
2023/12/16 04:24:14;;;;;;;6.17;5.57;;;10.40;79.50;9.00;98588.00;;;;4958246;28;20594;-86
2023/12/16 04:26:41;;;;;;;7.50;5.93;;;10.40;79.50;9.00;98564.00;;;;4962506;28;20306;-87
2023/12/16 04:29:08;;;;;;;6.30;5.70;;;10.40;79.50;9.00;98568.00;;;;4960897;28;20327;-87
2023/12/16 04:31:35;;;;;;;6.77;6.07;;;10.40;79.30;9.00;98575.00;;;;4962162;28;20205;-86
2023/12/16 04:34:02;;;;;;;6.53;5.80;;;10.40;79.30;9.00;98589.00;;;;4959179;28;20283;-88
2023/12/16 04:36:29;;;;;;;6.50;5.80;;;10.30;79.20;9.00;98588.00;;;;4957322;28;20659;-87
2023/12/16 04:38:57;;;;;;;7.77;5.87;;;10.30;79.30;9.00;98592.00;;;;4968116;28;20289;-87
2023/12/16 04:41:25;;;;;;;6.20;5.40;;;10.30;79.40;8.90;98600.00;;;;4955524;28;20737;-87
2023/12/16 04:43:53;;;;;;;8.10;6.23;;;10.50;79.40;9.00;98599.00;;;;4955950;28;20228;-87
2023/12/16 04:46:21;;;;;;;8.20;6.27;;;10.30;79.30;8.90;98592.00;;;;4964554;28;20517;-88
2023/12/16 04:48:48;;;;;;;6.20;5.60;;;10.30;79.40;8.90;98608.00;;;;4967607;28;20219;-87
2023/12/16 04:51:15;;;;;;;8.00;6.63;;;10.30;79.50;8.90;98617.00;;;;4965771;28;20195;-87
2023/12/16 04:53:42;;;;;;;7.77;5.93;;;10.30;79.60;8.90;98617.00;;;;4962766;28;20206;-87
2023/12/16 04:56:10;;;;;;;6.60;5.83;;;10.30;79.60;8.90;98613.00;;;;4958684;28;20303;-87
2023/12/16 04:58:38;;;;;;;7.50;5.93;;;10.20;79.60;8.90;98592.00;;;;4963419;28;20716;-88
2023/12/16 05:01:05;;;;;;;6.83;6.10;;;10.90;79.90;8.90;98621.00;;;;4969164;28;20203;-86
2023/12/16 05:03:33;;;;;;;7.60;5.83;;;10.30;79.40;8.90;98628.00;;;;4962199;28;20310;-87
2023/12/16 05:06:00;;;;;;;6.70;6.00;;;10.30;79.30;8.90;98619.00;;;;4967740;28;20215;-85
2023/12/16 05:08:27;;;;;;;6.63;5.93;;;10.20;79.10;8.90;98628.00;;;;4964593;28;20310;-88
2023/12/16 05:10:54;;;;;;;9.73;6.33;;;10.20;79.30;8.80;98628.00;;;;4962499;28;20206;-88
2023/12/16 05:13:21;;;;;;;6.80;5.97;;;10.20;79.30;8.80;98638.00;;;;4966011;28;20224;-88
2023/12/16 05:15:51;;;;;;;7.50;6.53;;;10.20;79.30;8.80;98633.00;;;;4971165;28;20713;-87
2023/12/16 05:18:18;;;;;;;8.33;6.40;;;10.20;79.10;8.80;98637.00;;;;4956105;28;20208;-89
2023/12/16 05:20:45;;;;;;;7.93;6.10;;;10.20;79.10;8.80;98642.00;;;;4956038;28;20211;-88
2023/12/16 05:23:14;;;;;;;7.83;6.03;;;10.10;79.00;8.70;98637.00;;;;4955708;28;20291;-88
2023/12/16 05:25:41;;;;;;;7.43;6.30;;;10.20;78.90;8.70;98629.00;;;;4962524;28;20228;-89
2023/12/16 05:28:09;;;;;;;6.63;5.93;;;10.10;78.90;8.60;98615.00;;;;4964581;28;20220;-88
2023/12/16 05:30:36;;;;;;;7.57;6.80;;;10.10;78.70;8.60;98612.00;;;;4955625;28;20585;-88
2023/12/16 05:33:05;;;;;;;8.23;6.10;;;10.00;78.40;8.50;98603.00;;;;4954641;28;20294;-87
2023/12/16 05:35:32;;;;;;;8.23;6.30;;;10.40;78.50;8.50;98603.00;;;;4956035;28;20286;-88
2023/12/16 05:37:59;;;;;;;8.10;6.33;;;9.90;78.10;8.40;98606.00;;;;4956017;28;20321;-85
2023/12/16 05:40:26;;;;;;;7.33;6.27;;;9.80;78.00;8.40;98591.00;;;;4967256;28;20226;-87
2023/12/16 05:42:53;;;;;;;8.60;6.17;;;9.80;78.10;8.30;98592.00;;;;4955810;28;20223;-88
2023/12/16 05:45:20;;;;;;;8.43;6.93;;;9.70;78.70;8.20;98591.00;;;;4967060;28;20706;-86
2023/12/16 05:47:48;;;;;;;8.67;7.23;;;9.70;78.10;8.20;98583.00;;;;4967481;28;20709;-86
2023/12/16 05:50:16;;;;;;;7.17;6.23;;;10.60;78.60;8.10;98589.00;;;;4966506;28;20223;-87
2023/12/16 05:52:43;;;;;;;7.57;6.60;;;9.60;78.10;8.10;98596.00;;;;4961800;28;20204;-87
2023/12/16 05:55:11;;;;;;;7.73;6.93;;;9.50;78.20;8.00;98584.00;;;;4954492;28;20598;-87
2023/12/16 05:57:38;;;;;;;8.00;6.60;;;9.50;78.30;8.00;98585.00;;;;4963746;28;20210;-87
2023/12/16 06:00:08;;;;;;;7.80;6.73;;;9.50;78.30;7.90;98598.00;;;;4968441;28;20645;-86
2023/12/16 06:02:34;;;;;;;7.97;6.80;;;9.40;78.30;7.90;98603.00;;;;4955942;28;20222;-87
2023/12/16 06:05:02;;;;;;;7.50;6.70;;;10.00;78.80;7.90;98611.00;;;;4963233;28;20242;-86
2023/12/16 06:07:31;;;;;;;7.97;6.80;;;9.30;78.60;7.80;98601.00;;;;4963101;28;20662;-86
2023/12/16 06:09:58;;;;;;;7.37;6.57;;;9.30;78.60;7.80;98607.00;;;;4968329;28;20647;-87
2023/12/16 06:12:25;;;;;;;6.90;6.20;;;9.20;78.50;7.80;98609.00;;;;4955587;28;20282;-88
2023/12/16 06:14:52;;;;;;;8.87;6.90;;;9.20;78.70;7.80;98624.00;;;;4966724;28;20222;-87
2023/12/16 06:17:19;;;;;;;7.87;6.23;;;9.30;79.00;7.70;98619.00;;;;4963681;28;20236;-87
2023/12/16 06:19:46;;;;;;;10.73;7.73;;;9.20;78.90;7.70;98617.00;;;;4961488;28;20299;-86
2023/12/16 06:22:13;;;;;;;8.23;7.13;;;9.20;78.90;7.70;98627.00;;;;4967162;28;20758;-87
2023/12/16 06:24:42;;;;;;;8.87;6.90;;;9.10;78.80;7.70;98627.00;;;;4961994;28;20206;-86
2023/12/16 06:27:09;;;;;;;8.53;6.97;;;9.10;78.80;7.60;98624.00;;;;4956787;28;20227;-87
2023/12/16 06:29:36;;;;;;;6.83;6.13;;;9.10;79.00;7.60;98634.00;;;;4953447;28;20226;-86
2023/12/16 06:32:07;;;;;;;8.13;6.73;;;9.10;79.10;7.60;98638.00;;;;4953180;28;20279;-87
2023/12/16 06:34:34;;;;;;;8.07;6.80;;;9.00;79.10;7.60;98636.00;;;;4955067;28;20208;-86
2023/12/16 06:37:01;;;;;;;7.43;6.13;;;9.00;79.10;7.60;98642.00;;;;4958460;28;20585;-86
2023/12/16 06:39:28;;;;;;;9.17;7.07;;;9.00;79.00;7.50;98639.00;;;;4955167;28;20254;-86
2023/12/16 06:41:56;;;;;;;8.47;7.23;;;9.00;78.90;7.50;98637.00;;;;4963311;28;20629;-87
2023/12/16 06:44:23;;;;;;;8.43;7.13;;;9.00;78.80;7.40;98628.00;;;;4958271;28;20770;-86
2023/12/16 06:46:50;;;;;;;8.97;6.83;;;9.70;79.00;7.40;98621.00;;;;4954981;28;20709;-87
2023/12/16 06:49:18;;;;;;;8.50;6.57;;;8.90;78.40;7.40;98622.00;;;;4967057;28;20753;-86
2023/12/16 06:51:45;;;;;;;7.93;7.03;;;8.90;78.50;7.40;98622.00;;;;4962181;28;20646;-87
2023/12/16 06:54:12;;;;;;;9.10;7.13;;;8.90;79.40;7.30;98626.00;;;;4964079;28;20641;-87
2023/12/16 06:56:39;;;;;;;8.07;6.50;;;8.80;78.80;7.30;98626.00;;;;4965510;28;20248;-87
2023/12/16 06:59:07;;;;;;;9.57;7.33;;;8.80;79.00;7.30;98644.00;;;;4964368;28;20218;-86
2023/12/16 07:01:34;;;;;;;8.87;7.37;;;8.80;79.10;7.30;98642.00;;;;4963008;28;20200;-87
2023/12/16 07:04:01;;;;;;;9.23;7.30;;;8.80;79.40;7.30;98659.00;;;;4958261;28;20279;-85
2023/12/16 07:06:28;;;;;;;10.30;7.97;;;8.80;79.60;7.30;98668.00;;;;4961272;28;20311;-86
2023/12/16 07:08:55;;;;;;;8.33;6.93;;;8.80;79.80;7.40;98662.00;;;;4963959;28;20224;-86
2023/12/16 07:11:22;;;;;;;9.20;7.13;;;8.80;80.60;7.40;98668.00;;;;4955026;28;20475;-86
2023/12/16 07:13:49;;;;;;;7.73;6.43;;;8.80;80.70;7.40;98667.00;;;;4961669;28;20990;-86
2023/12/16 07:16:18;;;;;;;8.70;7.30;;;8.90;80.20;7.50;98664.00;;;;4963643;28;20311;-86
2023/12/16 07:18:45;;;;;;;8.27;6.83;;;8.90;80.30;7.50;98666.00;;;;4961669;28;20302;-86
2023/12/16 07:21:12;;;;;;;8.90;7.23;;;9.00;80.40;7.50;98671.00;;;;4960636;28;20503;-86
2023/12/16 07:23:39;;;;;;;8.50;6.37;;;9.00;80.30;7.60;98668.00;;;;4958765;28;20207;-86
2023/12/16 07:26:06;;;;;;;9.13;6.93;;;9.00;80.30;7.60;98650.00;;;;4960288;28;20265;-86
2023/12/16 07:28:33;;;;;;;7.40;6.60;;;9.00;80.20;7.60;98646.00;;;;4958665;28;20315;-87
2023/12/16 07:31:00;;;;;;;8.57;6.60;;;9.10;81.00;7.60;98651.00;;;;4957455;28;20283;-84
2023/12/16 07:33:29;;;;;;;9.10;7.17;;;9.00;80.30;7.60;98652.00;;;;4961602;28;20204;-87
2023/12/16 07:35:56;;;;;;;7.27;6.53;;;9.90;80.90;7.70;98650.00;;;;4968304;28;20314;-89
2023/12/16 07:38:24;;;;;;;7.30;6.50;;;9.10;80.50;7.70;98657.00;;;;4966188;28;20291;-90
2023/12/16 07:40:51;;;;;;;9.67;6.97;;;9.70;80.90;7.80;98653.00;;;;4964864;28;20286;-89
2023/12/16 07:43:18;;;;;;;8.63;7.60;;;9.20;80.70;7.80;98658.00;;;;4972090;28;20203;-89
2023/12/16 07:45:45;;;;;;;9.97;8.03;;;9.20;80.80;7.80;98651.00;;;;4964304;28;20311;-89
2023/12/16 07:48:13;;;;;;;10.70;7.90;;;9.50;80.90;7.90;98659.00;;;;4963706;28;20231;-90
2023/12/16 07:50:41;;;;;;;8.43;7.50;;;9.30;80.80;8.00;98674.00;;;;4963025;28;20290;-88
2023/12/16 07:53:08;;;;;;;8.67;7.17;;;9.40;80.70;8.00;98681.00;;;;4965872;28;20633;-87
2023/12/16 07:55:36;;;;;;;10.10;7.40;;;9.50;80.60;8.10;98689.00;;;;4961443;28;20215;-87
2023/12/16 07:58:03;;;;;;;8.53;7.10;;;9.70;80.80;8.20;98674.00;;;;4960171;28;20235;-86
2023/12/16 08:00:30;;;;;;;8.10;6.70;;;9.60;80.80;8.20;98681.00;;;;4957726;28;20203;-87
2023/12/16 08:02:58;;;;;;;8.17;6.87;;;9.60;80.70;8.30;98662.00;;;;4961030;28;20292;-87
2023/12/16 08:05:25;;;;;;;8.27;7.03;;;9.60;80.60;8.30;98662.00;;;;4961425;28;20220;-86
2023/12/16 08:07:53;;;;;;;8.63;7.10;;;9.70;81.20;8.30;98661.00;;;;4960088;28;20200;-87
2023/12/16 08:10:20;;;;;;;8.77;7.13;;;9.70;80.30;8.40;98674.00;;;;4962046;28;20307;-87
2023/12/16 08:12:47;;;;;;;10.37;8.30;;;9.90;80.40;8.40;98696.00;;;;4958531;28;20195;-85
2023/12/16 08:15:15;;;;;;;10.13;7.67;;;9.90;81.10;8.50;98699.00;;;;4962946;28;20219;-87
2023/12/16 08:17:43;;;;;;;9.90;7.17;;;9.90;80.30;8.50;98674.00;;;;4960029;28;20199;-87
2023/12/16 08:20:11;;;;;;;9.57;8.27;;;9.10;79.70;8.50;98687.00;;;;4954716;28;20585;-87
2023/12/16 08:22:40;;;;;;;9.30;7.60;;;10.00;80.00;8.60;98667.00;;;;4957258;28;20207;-87
2023/12/16 08:25:10;;;;;;;11.80;8.03;;;10.10;80.10;8.60;98670.00;;;;4951591;28;20267;-86
2023/12/16 08:27:37;;;;;;;10.03;8.10;;;10.10;80.00;8.60;98672.00;;;;4958189;28;20207;-88
2023/12/16 08:30:06;;;;;;;9.50;7.47;;;10.10;80.00;8.70;98669.00;;;;4963487;28;20224;-85
2023/12/16 08:32:33;;;;;;;8.67;6.63;;;10.10;80.00;8.70;98694.00;;;;4961959;28;20560;-87
2023/12/16 08:35:00;;;;;;;8.23;6.60;;;10.20;80.00;8.70;98676.00;;;;4953098;28;20216;-85
2023/12/16 08:37:27;;;;;;;8.50;7.50;;;10.20;80.00;8.80;98681.00;;;;4967068;28;20206;-87
2023/12/16 08:39:54;;;;;;;8.23;6.60;;;10.20;79.90;8.80;98701.00;;;;4963277;28;20323;-86
2023/12/16 08:42:23;;;;;;;8.80;7.10;;;10.30;80.00;8.80;98717.00;;;;4961640;28;20199;-87
2023/12/16 08:44:50;;;;;;;8.03;7.07;;;10.40;79.70;8.90;98732.00;;;;4958051;28;20372;-86
2023/12/16 08:47:17;;;;;;;8.67;6.77;;;10.30;79.60;8.90;98719.00;;;;4953140;28;20231;-87
2023/12/16 08:49:45;;;;;;;7.83;6.73;;;10.40;79.60;8.90;98701.00;;;;4961615;28;20224;-86
2023/12/16 08:52:13;;;;;;;8.17;6.83;;;10.80;79.80;8.90;98723.00;;;;4952693;28;20287;-87
2023/12/16 08:54:41;;;;;;;8.37;7.00;;;10.40;79.60;9.00;98726.00;;;;4952295;28;20200;-86
2023/12/16 08:57:08;;;;;;;9.60;7.60;;;10.40;79.60;9.00;98729.00;;;;4968150;28;20200;-87
2023/12/16 08:59:37;;;;;;;8.90;7.00;;;11.50;80.20;9.10;98719.00;;;;4970448;28;20209;-87
2023/12/16 09:02:05;;;;;;;7.13;6.33;;;10.50;79.50;9.10;98731.00;;;;4967182;28;20199;-87
2023/12/16 09:04:32;;;;;;;7.20;6.50;;;10.50;79.60;9.10;98738.00;;;;4965991;28;20204;-87
2023/12/16 09:06:59;;;;;;;7.93;6.50;;;10.60;79.70;9.20;98741.00;;;;4964245;28;20204;-87
2023/12/16 09:09:27;;;;;;;8.70;7.47;;;10.60;79.70;9.20;98727.00;;;;4957148;28;20261;-87
2023/12/16 09:11:54;;;;;;;8.17;6.33;;;10.70;79.80;9.30;98741.00;;;;4959039;28;20232;-87
2023/12/16 09:14:22;;;;;;;8.03;6.83;;;10.70;79.60;9.30;98752.00;;;;4957148;28;20199;-86
2023/12/16 09:16:53;;;;;;;8.67;7.27;;;11.10;79.90;9.30;98749.00;;;;4963149;28;20708;-87
2023/12/16 09:19:21;;;;;;;9.07;7.37;;;10.70;79.30;9.40;98759.00;;;;4963958;28;20211;-86
2023/12/16 09:21:49;;;;;;;8.20;7.17;;;10.80;79.30;9.40;98756.00;;;;4962315;28;20263;-87
2023/12/16 09:24:20;;;;;;;8.93;6.53;;;10.90;79.20;9.40;98763.00;;;;4962953;28;20287;-87
2023/12/16 09:26:48;;;;;;;9.73;7.03;;;10.80;79.40;9.50;98767.00;;;;4963705;28;20215;-86
2023/12/16 09:29:23;;;;;;;9.10;7.40;;;10.80;79.30;9.50;98761.00;;;;4964201;28;20226;-86
2023/12/16 09:31:52;;;;;;;11.00;7.17;;;11.00;79.30;9.50;98769.00;;;;4964732;28;20305;-86
2023/12/16 09:34:20;;;;;;;8.57;7.53;;;11.00;79.30;9.60;98768.00;;;;4966966;28;20207;-87
2023/12/16 09:36:47;;;;;;;8.07;6.87;;;11.00;79.30;9.60;98770.00;;;;4968615;28;20212;-87
2023/12/16 09:39:16;;;;;;;8.00;6.40;;;11.00;79.90;9.70;98768.00;;;;4967478;28;20697;-86
2023/12/16 09:41:44;;;;;;;8.53;6.47;;;11.10;79.00;9.70;98750.00;;;;4963629;28;20283;-87
2023/12/16 09:44:16;;;;;;;7.93;6.57;;;11.00;78.50;9.70;98756.00;;;;4965269;28;20227;-87
2023/12/16 09:46:44;;;;;;;7.63;6.83;;;11.60;78.80;9.70;98775.00;;;;4966587;28;20229;-86
2023/12/16 09:49:14;;;;;;;7.53;6.23;;;11.20;78.50;9.70;98769.00;;;;4967891;28;20314;-87
2023/12/16 09:51:42;;;;;;;10.57;7.17;;;11.20;78.20;9.70;98747.00;;;;4969319;28;20734;-87
2023/12/16 09:54:10;;;;;;;9.23;7.23;;;11.20;78.30;9.70;98748.00;;;;4965729;28;20208;-88
2023/12/16 09:56:42;;;;;;;9.03;7.00;;;11.30;78.50;9.70;98748.00;;;;4964390;28;20220;-87
2023/12/16 09:59:19;;;;;;;7.93;7.10;;;11.20;78.10;9.70;98747.00;;;;4966844;28;20290;-87
2023/12/16 10:01:53;;;;;;;8.37;6.80;;;11.20;77.70;9.70;98753.00;;;;4964218;28;20204;-86
2023/12/16 10:04:23;;;;;;;8.17;7.13;;;11.10;78.00;9.70;98752.00;;;;4963575;28;20192;-87
2023/12/16 10:06:54;;;;;;;8.50;7.43;;;11.10;79.10;9.90;98743.00;;;;4961117;28;20302;-88
2023/12/16 10:09:21;;;;;;;8.90;7.70;;;11.20;80.50;10.10;98752.00;;;;4959882;28;20644;-87
2023/12/16 10:11:52;;;;;;;8.80;7.73;;;11.40;81.70;10.30;98751.00;;;;4960289;28;20649;-87
2023/12/16 10:14:20;;;;;;;8.63;7.00;;;11.60;82.20;10.50;98761.00;;;;4960749;28;20670;-87
2023/12/16 10:16:47;;;;;;;11.00;7.50;;;11.80;82.50;10.80;98755.00;;;;4963018;28;20644;-86
2023/12/16 10:19:18;;;;;;;9.10;7.13;;;12.00;82.30;11.00;98759.00;;;;4965582;28;20208;-88
2023/12/16 10:21:47;;;;;;;9.60;7.43;;;12.20;82.30;11.20;98765.00;;;;4965129;28;20299;-86
2023/12/16 10:24:16;;;;;;;8.47;6.73;;;12.40;81.40;11.40;98762.00;;;;4960609;28;20295;-87
2023/12/16 10:26:44;;;;;;;9.03;7.67;;;12.60;80.80;11.50;98760.00;;;;4966483;28;20722;-88
2023/12/16 10:29:12;;;;;;;8.00;6.70;;;12.70;80.30;11.60;98766.00;;;;4964234;28;20255;-88
2023/12/16 10:31:42;;;;;;;7.17;6.37;;;12.90;80.00;11.60;98764.00;;;;4970063;28;20580;-87
2023/12/16 10:34:09;;;;;;;7.17;6.43;;;12.90;78.00;11.60;98771.00;;;;4958478;28;20236;-88
2023/12/16 10:36:36;;;;;;;7.53;6.13;;;12.80;77.60;11.60;98751.00;;;;4961087;28;20228;-88
2023/12/16 10:39:04;;;;;;;8.20;6.67;;;12.90;77.30;11.60;98764.00;;;;4955571;28;20290;-88
2023/12/16 10:41:31;;;;;;;6.63;5.97;;;13.00;77.80;11.60;98764.00;;;;4963654;28;20200;-87
2023/12/16 10:43:59;;;;;;;8.30;7.10;;;13.00;76.50;11.60;98765.00;;;;4957314;28;20254;-87
2023/12/16 10:46:36;;;;;;;7.27;6.27;;;12.90;76.90;11.50;98759.00;;;;4961507;28;20230;-89
2023/12/16 10:49:04;;;;;;;7.77;6.53;;;13.30;76.90;11.50;98755.00;;;;4965258;28;20195;-88
2023/12/16 10:51:41;;;;;;;7.03;6.33;;;12.80;76.60;11.50;98761.00;;;;4968105;28;20210;-89
2023/12/16 10:54:23;;;;;;;6.23;5.70;;;12.80;76.40;11.50;98769.00;;;;4964066;28;20235;-87
2023/12/16 10:57:14;;;;;;;6.73;5.80;;;12.80;76.00;11.50;98763.00;;;;4962760;28;20203;-87
2023/12/16 10:59:54;;;;;;;7.40;6.50;;;12.80;76.60;11.50;98751.00;;;;4960165;28;20203;-88
2023/12/16 11:02:28;;;;;;;6.73;5.73;;;12.90;77.10;11.60;98730.00;;;;4963230;28;20681;-87
2023/12/16 11:05:06;;;;;;;7.00;6.03;;;12.90;77.20;11.60;98709.00;;;;4961381;28;20247;-87